createdAt,value
2018-01-12T00:00:22.792Z,7.09
2018-01-12T00:02:50.303Z,7.16
2018-01-12T00:05:17.817Z,7.11
2018-01-12T00:07:45.420Z,6.59
2018-01-12T00:10:12.926Z,6.87
2018-01-12T00:12:40.452Z,7.03
2018-01-12T00:15:07.994Z,7.11
2018-01-12T00:17:35.554Z,7.25
2018-01-12T00:20:03.113Z,7.32
2018-01-12T00:22:30.769Z,7.33
2018-01-12T00:24:59.050Z,7.28
2018-01-12T00:27:26.565Z,7.25
2018-01-12T00:29:54.167Z,7.35
2018-01-12T00:32:21.730Z,7.39
2018-01-12T00:34:49.287Z,7.30
2018-01-12T00:37:17.054Z,7.47
2018-01-12T00:39:44.610Z,7.45
2018-01-12T00:42:12.177Z,7.47
2018-01-12T00:44:39.823Z,7.49
2018-01-12T00:47:07.338Z,7.47
2018-01-12T00:49:34.854Z,7.31
2018-01-12T00:52:02.609Z,7.25
2018-01-12T00:54:30.129Z,7.12
2018-01-12T00:56:57.649Z,7.28
2018-01-12T00:59:25.235Z,7.35
2018-01-12T01:01:52.750Z,7.42
2018-01-12T01:04:20.305Z,7.09
2018-01-12T01:06:47.889Z,7.12
2018-01-12T01:09:15.420Z,7.19
2018-01-12T01:11:42.980Z,7.26
2018-01-12T01:14:10.642Z,7.31
2018-01-12T01:16:38.216Z,7.35
2018-01-12T01:19:05.894Z,7.32
2018-01-12T01:21:33.462Z,7.30
2018-01-12T01:24:00.980Z,7.18
2018-01-12T01:26:28.484Z,7.12
2018-01-12T01:28:56.291Z,7.12
2018-01-12T01:31:23.815Z,7.16
2018-01-12T01:33:51.336Z,7.15
2018-01-12T01:36:18.898Z,7.29
2018-01-12T01:38:46.413Z,7.16
2018-01-12T01:41:13.932Z,7.20
2018-01-12T01:43:41.477Z,7.18
2018-01-12T01:46:09.013Z,6.98
2018-01-12T01:48:41.590Z,7.17
2018-01-12T01:51:09.149Z,7.13
2018-01-12T01:53:36.709Z,7.04
2018-01-12T01:56:04.277Z,7.10
2018-01-12T01:58:31.827Z,7.07
2018-01-12T02:00:59.338Z,6.91
2018-01-12T02:03:27.314Z,7.03
2018-01-12T02:05:54.982Z,7.14
2018-01-12T02:08:22.489Z,7.10
2018-01-12T02:10:50.460Z,7.01
2018-01-12T02:13:17.967Z,6.94
2018-01-12T02:15:45.482Z,7.02
2018-01-12T02:18:13.034Z,6.96
2018-01-12T02:20:40.575Z,6.89
2018-01-12T02:23:08.089Z,6.81
2018-01-12T02:25:35.898Z,6.88
2018-01-12T02:28:03.405Z,6.78
2018-01-12T02:30:30.928Z,7.13
2018-01-12T02:32:58.679Z,7.15
2018-01-12T02:35:26.194Z,7.11
2018-01-12T02:37:53.705Z,7.19
2018-01-12T02:40:21.655Z,7.15
2018-01-12T02:42:49.178Z,7.18
2018-01-12T02:45:16.702Z,7.16
2018-01-12T02:47:44.649Z,7.20
2018-01-12T02:50:12.207Z,7.18
2018-01-12T02:52:39.717Z,7.12
2018-01-12T02:55:07.272Z,7.12
2018-01-12T02:57:34.783Z,7.21
2018-01-12T03:00:02.302Z,7.19
2018-01-12T03:02:30.104Z,7.23
2018-01-12T03:04:57.664Z,7.12
2018-01-12T03:07:25.234Z,7.18
2018-01-12T03:09:52.824Z,7.15
2018-01-12T03:12:20.341Z,7.11
2018-01-12T03:14:47.901Z,7.11
2018-01-12T03:17:15.664Z,7.15
2018-01-12T03:19:43.178Z,7.15
2018-01-12T03:22:10.693Z,7.17
2018-01-12T03:24:38.649Z,7.18
2018-01-12T03:27:06.209Z,7.27
2018-01-12T03:29:33.721Z,7.29
2018-01-12T03:32:01.410Z,7.28
2018-01-12T03:34:28.930Z,7.22
2018-01-12T03:36:56.446Z,7.34
2018-01-12T03:39:24.209Z,7.26
2018-01-12T03:41:51.722Z,7.32
2018-01-12T03:44:19.234Z,7.38
2018-01-12T03:46:47.069Z,7.40
2018-01-12T03:49:14.578Z,7.32
2018-01-12T03:51:42.089Z,7.22
2018-01-12T03:54:09.630Z,7.24
2018-01-12T03:56:37.143Z,7.21
2018-01-12T03:59:04.681Z,7.10
2018-01-12T04:01:32.237Z,6.98
2018-01-12T04:03:59.746Z,7.02
2018-01-12T04:06:27.257Z,7.11
2018-01-12T04:08:55.021Z,7.22
2018-01-12T04:11:22.542Z,7.20
2018-01-12T04:13:50.058Z,7.07
2018-01-12T04:16:17.714Z,7.01
2018-01-12T04:18:45.256Z,7.15
2018-01-12T04:21:12.829Z,6.90
2018-01-12T04:23:40.393Z,7.08
2018-01-12T04:26:07.935Z,7.22
2018-01-12T04:28:35.446Z,7.24
2018-01-12T04:31:03.003Z,7.25
2018-01-12T04:33:30.518Z,7.22
2018-01-12T04:35:58.376Z,7.22
2018-01-12T04:38:26.345Z,7.24
2018-01-12T04:40:53.853Z,7.21
2018-01-12T04:43:21.772Z,7.31
2018-01-12T04:45:49.514Z,7.33
2018-01-12T04:48:17.030Z,7.28
2018-01-12T04:50:44.553Z,7.27
2018-01-12T04:53:12.498Z,7.29
2018-01-12T04:55:40.009Z,7.29
2018-01-12T04:58:07.686Z,7.38
2018-01-12T05:00:35.488Z,7.32
2018-01-12T05:03:03.011Z,7.40
2018-01-12T05:05:30.543Z,7.47
2018-01-12T05:07:58.386Z,7.52
2018-01-12T05:10:25.945Z,7.32
2018-01-12T05:12:53.506Z,7.49
2018-01-12T05:15:21.473Z,7.52
2018-01-12T05:17:49.032Z,7.33
2018-01-12T05:20:16.592Z,7.41
2018-01-12T05:22:44.546Z,7.43
2018-01-12T05:25:12.053Z,7.44
2018-01-12T05:27:39.613Z,7.40
2018-01-12T05:30:07.175Z,7.46
2018-01-12T05:32:34.698Z,7.52
2018-01-12T05:35:02.253Z,7.54
2018-01-12T05:37:29.807Z,7.61
2018-01-12T05:39:57.371Z,7.69
2018-01-12T05:42:24.931Z,7.68
2018-01-12T05:44:52.670Z,7.76
2018-01-12T05:47:20.183Z,7.32
2018-01-12T05:49:47.704Z,7.71
2018-01-12T05:52:15.275Z,7.79
2018-01-12T05:54:42.832Z,7.81
2018-01-12T05:57:10.389Z,7.68
2018-01-12T05:59:37.942Z,7.80
2018-01-12T06:02:17.414Z,7.82
2018-01-12T06:04:57.358Z,7.78
2018-01-12T06:07:24.958Z,7.79
2018-01-12T06:09:52.485Z,7.81
2018-01-12T06:12:20.328Z,7.61
2018-01-12T06:14:47.841Z,7.55
2018-01-12T06:17:15.349Z,7.60
2018-01-12T06:19:42.913Z,7.40
2018-01-12T06:22:10.451Z,7.47
2018-01-12T06:24:37.975Z,7.44
2018-01-12T06:27:05.545Z,7.56
2018-01-12T06:29:33.058Z,7.52
2018-01-12T06:32:00.630Z,7.47
2018-01-12T06:34:28.557Z,7.53
2018-01-12T06:36:56.115Z,7.56
2018-01-12T06:39:23.689Z,7.51
2018-01-12T06:41:51.262Z,7.57
2018-01-12T06:44:18.795Z,7.49
2018-01-12T06:46:46.351Z,7.51
2018-01-12T06:49:14.298Z,7.61
2018-01-12T06:51:41.822Z,7.66
2018-01-12T06:54:09.337Z,7.66
2018-01-12T06:56:36.895Z,7.66
2018-01-12T06:59:04.454Z,7.68
2018-01-12T07:01:31.958Z,7.41
2018-01-12T07:03:59.753Z,7.28
2018-01-12T07:06:27.275Z,7.07
2018-01-12T07:08:54.786Z,7.20
2018-01-12T07:11:22.351Z,7.15
2018-01-12T07:13:49.919Z,7.01
2018-01-12T07:16:17.483Z,6.90
2018-01-12T07:18:45.064Z,6.81
2018-01-12T07:21:24.488Z,6.86
2018-01-12T07:23:52.033Z,6.40
2018-01-12T07:26:19.585Z,6.41
2018-01-12T07:28:47.144Z,6.57
2018-01-12T07:31:14.853Z,6.30
2018-01-12T07:33:42.374Z,6.50
2018-01-12T07:36:09.892Z,6.31
2018-01-12T07:38:37.994Z,6.53
2018-01-12T07:41:05.556Z,6.34
2018-01-12T07:43:33.122Z,6.69
2018-01-12T07:46:00.858Z,6.76
2018-01-12T07:48:28.370Z,6.35
2018-01-12T07:50:55.892Z,6.86
2018-01-12T07:53:23.581Z,6.54
2018-01-12T07:55:51.113Z,6.56
2018-01-12T07:58:18.681Z,6.48
2018-01-12T08:00:51.830Z,6.54
2018-01-12T08:03:19.362Z,6.57
2018-01-12T08:05:46.868Z,7.01
2018-01-12T08:08:14.438Z,7.28
2018-01-12T08:10:41.945Z,7.25
2018-01-12T08:13:09.457Z,7.40
2018-01-12T08:15:37.016Z,7.33
2018-01-12T08:18:04.573Z,7.07
2018-01-12T08:20:32.133Z,6.96
2018-01-12T08:23:00.206Z,7.20
2018-01-12T08:25:27.764Z,7.28
2018-01-12T08:27:55.278Z,7.23
2018-01-12T08:30:23.165Z,7.64
2018-01-12T08:32:50.673Z,7.64
2018-01-12T08:35:18.217Z,7.79
2018-01-12T08:37:45.761Z,7.97
2018-01-12T08:40:13.277Z,7.50
2018-01-12T08:42:40.791Z,7.64
2018-01-12T08:45:08.361Z,7.85
2018-01-12T08:47:35.872Z,7.83
2018-01-12T08:50:03.385Z,7.90
2018-01-12T08:52:31.219Z,7.83
2018-01-12T08:54:58.849Z,7.68
2018-01-12T08:57:26.378Z,8.01
2018-01-12T08:59:54.148Z,7.83
2018-01-12T09:02:21.660Z,7.82
2018-01-12T09:04:49.220Z,7.88
2018-01-12T09:07:16.961Z,7.77
2018-01-12T09:09:44.538Z,7.44
2018-01-12T09:12:12.058Z,7.65
2018-01-12T09:14:50.601Z,7.84
2018-01-12T09:17:30.261Z,8.22
2018-01-12T09:20:10.210Z,7.66
2018-01-12T09:22:47.498Z,7.75
2018-01-12T09:25:26.115Z,7.98
2018-01-12T09:27:53.674Z,7.56
2018-01-12T09:30:21.556Z,7.85
2018-01-12T09:32:50.045Z,8.04
2018-01-12T09:35:18.200Z,7.84
2018-01-12T09:37:45.756Z,8.24
2018-01-12T09:40:28.348Z,8.19
2018-01-12T09:42:55.863Z,8.35
2018-01-12T09:45:23.403Z,8.37
2018-01-12T09:48:15.213Z,8.35
2018-01-12T09:50:42.781Z,8.54
2018-01-12T09:53:10.290Z,8.45
2018-01-12T09:55:38.065Z,8.19
2018-01-12T09:58:05.578Z,8.02
2018-01-12T10:00:50.289Z,7.76
2018-01-12T10:03:17.792Z,8.17
2018-01-12T10:05:45.327Z,8.10
2018-01-12T10:08:16.999Z,7.95
2018-01-12T10:10:45.054Z,7.84
2018-01-12T10:13:12.614Z,8.04
2018-01-12T10:15:40.479Z,8.42
2018-01-12T10:21:27.932Z,8.77
2018-01-12T10:23:55.460Z,8.39
2018-01-12T10:26:22.982Z,8.59
2018-01-12T10:29:02.378Z,8.64
2018-01-12T10:31:39.785Z,9.06
2018-01-12T10:34:08.174Z,9.11
2018-01-12T10:36:40.436Z,8.97
2018-01-12T10:39:19.856Z,9.44
2018-01-12T10:41:59.181Z,9.47
2018-01-12T10:44:26.929Z,9.29
2018-01-12T10:47:19.012Z,9.25
2018-01-12T10:49:58.306Z,9.10
2018-01-12T10:52:31.901Z,8.41
2018-01-12T10:54:59.473Z,8.47
2018-01-12T10:57:26.995Z,8.75
2018-01-12T10:59:54.515Z,9.38
2018-01-12T11:02:22.249Z,8.93
2018-01-12T11:04:49.762Z,9.44
2018-01-12T11:07:17.275Z,9.52
2018-01-12T11:09:45.125Z,9.66
2018-01-12T11:12:12.641Z,9.99
2018-01-12T11:14:40.161Z,10.72
2018-01-12T11:17:07.742Z,11.21
2018-01-12T11:19:35.266Z,11.04
2018-01-12T11:22:02.785Z,10.90
2018-01-12T11:24:30.680Z,10.90
2018-01-12T11:26:58.194Z,11.76
2018-01-12T11:29:25.717Z,12.53
2018-01-12T11:31:53.558Z,17.00
2018-01-12T11:34:21.533Z,19.67
2018-01-12T11:36:49.058Z,20.72
2018-01-12T11:39:16.617Z,23.35
2018-01-12T11:41:44.138Z,23.57
2018-01-12T11:44:11.662Z,22.67
2018-01-12T11:46:39.210Z,23.34
2018-01-12T11:49:06.725Z,22.09
2018-01-12T11:51:34.246Z,20.51
2018-01-12T11:54:01.921Z,18.47
2018-01-12T11:56:29.430Z,16.51
2018-01-12T11:58:56.942Z,15.68
2018-01-12T12:01:24.494Z,13.76
2018-01-12T12:03:52.055Z,14.10
2018-01-12T12:06:19.615Z,13.18
2018-01-12T12:08:47.162Z,13.28
2018-01-12T12:11:14.678Z,12.88
2018-01-12T12:13:42.193Z,11.11
2018-01-12T12:16:09.762Z,10.80
2018-01-12T12:18:37.308Z,11.87
2018-01-12T12:21:04.828Z,11.91
2018-01-12T12:23:32.406Z,10.48
2018-01-12T12:25:59.929Z,10.12
2018-01-12T12:28:27.446Z,9.98
2018-01-12T12:30:55.616Z,10.28
2018-01-12T12:33:23.125Z,10.02
2018-01-12T12:35:50.638Z,9.85
2018-01-12T12:38:18.600Z,9.86
2018-01-12T12:40:46.159Z,10.06
2018-01-12T12:43:13.669Z,10.07
2018-01-12T12:45:41.482Z,9.13
2018-01-12T12:48:08.993Z,9.07
2018-01-12T12:50:36.506Z,8.93
2018-01-12T12:53:04.238Z,9.51
2018-01-12T12:55:31.770Z,9.40
2018-01-12T12:58:00.284Z,9.39
2018-01-12T13:00:28.374Z,9.41
2018-01-12T13:02:55.943Z,9.84
2018-01-12T13:05:23.535Z,9.32
2018-01-12T13:07:51.463Z,8.92
2018-01-12T13:10:19.007Z,9.42
2018-01-12T13:12:46.681Z,9.86
2018-01-12T13:15:14.426Z,9.93
2018-01-12T13:17:42.113Z,9.96
2018-01-12T13:20:09.664Z,10.14
2018-01-12T13:22:37.514Z,10.42
2018-01-12T13:25:05.055Z,10.54
2018-01-12T13:27:32.568Z,10.25
2018-01-12T13:30:00.621Z,10.16
2018-01-12T13:32:28.175Z,10.18
2018-01-12T13:34:55.692Z,9.94
2018-01-12T13:37:23.602Z,10.02
2018-01-12T13:39:51.366Z,10.26
2018-01-12T13:42:18.925Z,9.90
2018-01-12T13:44:47.100Z,9.41
2018-01-12T13:47:14.658Z,10.03
2018-01-12T13:49:42.422Z,9.36
2018-01-12T13:52:10.187Z,9.50
2018-01-12T13:54:37.843Z,9.66
2018-01-12T13:57:05.408Z,9.39
2018-01-12T13:59:33.187Z,9.36
2018-01-12T14:02:01.037Z,9.39
2018-01-12T14:04:28.863Z,9.26
2018-01-12T14:06:56.570Z,9.09
2018-01-12T14:09:24.145Z,9.06
2018-01-12T14:11:51.684Z,9.31
2018-01-12T14:14:19.450Z,9.18
2018-01-12T14:16:47.112Z,9.14
2018-01-12T14:19:15.629Z,9.32
2018-01-12T14:21:43.554Z,8.97
2018-01-12T14:24:11.219Z,9.08
2018-01-12T14:26:38.984Z,9.30
2018-01-12T14:29:06.977Z,9.26
2018-01-12T14:31:34.795Z,8.76
2018-01-12T14:34:02.379Z,8.72
2018-01-12T14:36:30.233Z,8.55
2018-01-12T14:38:58.220Z,8.38
2018-01-12T14:41:26.079Z,8.80
2018-01-12T14:43:53.949Z,8.82
2018-01-12T14:46:21.533Z,8.79
2018-01-12T14:48:49.065Z,8.51
2018-01-12T14:51:16.745Z,8.82
2018-01-12T14:53:44.517Z,8.51
2018-01-12T14:56:12.075Z,8.69
2018-01-12T14:58:39.948Z,8.61
2018-01-12T15:01:07.525Z,8.50
2018-01-12T15:03:35.238Z,8.05
2018-01-12T15:06:03.134Z,8.35
2018-01-12T15:08:31.792Z,8.52
2018-01-12T15:10:59.368Z,8.47
2018-01-12T15:13:26.929Z,8.61
2018-01-12T15:15:54.476Z,8.76
2018-01-12T15:18:22.231Z,8.60
2018-01-12T15:20:49.793Z,8.30
2018-01-12T15:23:17.312Z,8.42
2018-01-12T15:25:44.839Z,8.39
2018-01-12T15:28:12.792Z,8.53
2018-01-12T15:30:41.562Z,8.12
2018-01-12T15:33:09.130Z,7.57
2018-01-12T15:35:37.025Z,7.32
2018-01-12T15:38:04.566Z,7.73
2018-01-12T15:40:32.312Z,7.79
2018-01-12T15:42:59.920Z,7.70
2018-01-12T15:45:27.446Z,7.74
2018-01-12T15:47:55.006Z,7.41
2018-01-12T15:50:22.753Z,7.53
2018-01-12T15:52:50.313Z,7.26
2018-01-12T15:55:17.872Z,7.30
2018-01-12T15:57:45.546Z,7.67
2018-01-12T16:00:13.092Z,7.51
2018-01-12T16:02:40.650Z,7.57
2018-01-12T16:05:08.722Z,7.36
2018-01-12T16:07:36.485Z,7.45
2018-01-12T16:10:04.002Z,7.41
2018-01-12T16:12:31.565Z,7.28
2018-01-12T16:14:59.103Z,6.75
2018-01-12T16:17:26.620Z,6.99
2018-01-12T16:19:54.814Z,7.13
2018-01-12T16:22:22.373Z,7.23
2018-01-12T16:24:49.913Z,7.25
2018-01-12T16:27:17.687Z,7.19
2018-01-12T16:29:45.337Z,7.09
2018-01-12T16:32:12.896Z,7.08
2018-01-12T16:34:40.557Z,7.36
2018-01-12T16:37:08.219Z,7.40
2018-01-12T16:39:36.957Z,7.22
2018-01-12T16:42:04.879Z,7.17
2018-01-12T16:44:32.740Z,6.98
2018-01-12T16:47:00.299Z,7.27
2018-01-12T16:49:27.961Z,7.53
2018-01-12T16:51:55.514Z,7.34
2018-01-12T16:54:23.078Z,7.35
2018-01-12T16:56:50.637Z,7.52
2018-01-12T16:59:18.198Z,7.30
2018-01-12T17:01:45.813Z,7.65
2018-01-12T17:04:13.416Z,7.45
2018-01-12T17:06:41.078Z,7.41
2018-01-12T17:09:08.594Z,7.54
2018-01-12T17:11:36.299Z,7.65
2018-01-12T17:14:03.878Z,7.56
2018-01-12T17:16:31.418Z,7.23
2018-01-12T17:18:59.385Z,7.21
2018-01-12T17:21:27.048Z,6.93
2018-01-12T17:23:55.018Z,6.84
2018-01-12T17:26:22.756Z,6.51
2018-01-12T17:28:50.444Z,6.79
2018-01-12T17:31:18.210Z,7.05
2018-01-12T17:33:46.995Z,7.24
2018-01-12T17:36:14.537Z,7.27
2018-01-12T17:38:42.219Z,7.29
2018-01-12T17:41:10.183Z,7.25
2018-01-12T17:43:38.820Z,7.21
2018-01-12T17:46:06.367Z,7.32
2018-01-12T17:48:34.195Z,7.06
2018-01-12T17:51:01.751Z,7.07
2018-01-12T17:53:29.333Z,6.73
2018-01-12T17:55:56.890Z,6.85
2018-01-12T17:58:24.428Z,7.28
2018-01-12T18:00:51.986Z,7.03
2018-01-12T18:03:19.752Z,7.03
2018-01-12T18:05:47.311Z,7.03
2018-01-12T18:08:14.870Z,7.14
2018-01-12T18:10:43.645Z,7.40
2018-01-12T18:13:11.169Z,7.12
2018-01-12T18:15:39.502Z,7.54
2018-01-12T18:18:07.154Z,7.15
2018-01-12T18:20:35.122Z,7.55
2018-01-12T18:23:02.887Z,7.64
2018-01-12T18:25:30.974Z,7.36
2018-01-12T18:27:58.938Z,7.78
2018-01-12T18:30:26.603Z,7.84
2018-01-12T18:32:54.852Z,7.47
2018-01-12T18:35:22.918Z,7.60
2018-01-12T18:37:51.125Z,7.36
2018-01-12T18:40:19.503Z,7.46
2018-01-12T18:42:47.459Z,7.49
2018-01-12T18:45:15.118Z,7.54
2018-01-12T18:47:43.207Z,7.70
2018-01-12T18:50:11.641Z,7.72
2018-01-12T18:52:39.929Z,7.60
2018-01-12T18:55:08.450Z,7.68
2018-01-12T18:57:36.615Z,7.57
2018-01-12T19:00:04.629Z,7.67
2018-01-12T19:02:32.954Z,7.67
2018-01-12T19:05:01.125Z,7.73
2018-01-12T19:07:29.208Z,7.82
2018-01-12T19:09:57.459Z,7.62
2018-01-12T19:12:25.438Z,7.49
2018-01-12T19:14:53.420Z,7.47
2018-01-12T19:17:21.677Z,7.33
2018-01-12T19:19:53.148Z,7.25
2018-01-12T19:22:22.226Z,7.31
2018-01-12T19:24:50.481Z,7.20
2018-01-12T19:27:18.387Z,7.23
2018-01-12T19:29:46.660Z,7.38
2018-01-12T19:32:15.045Z,7.28
2018-01-12T19:34:42.791Z,7.18
2018-01-12T19:37:10.803Z,7.03
2018-01-12T19:39:39.081Z,6.67
2018-01-12T19:42:06.907Z,6.87
2018-01-12T19:44:35.281Z,6.74
2018-01-12T19:47:03.674Z,6.64
2018-01-12T19:49:32.183Z,6.51
2018-01-12T19:52:00.321Z,6.83
2018-01-12T19:54:28.905Z,6.92
2018-01-12T19:56:57.154Z,7.09
2018-01-12T19:59:25.442Z,7.08
2018-01-12T20:01:53.974Z,6.89
2018-01-12T20:04:22.067Z,6.89
2018-01-12T20:06:51.074Z,6.78
2018-01-12T20:09:19.782Z,6.92
2018-01-12T20:11:47.765Z,6.56
2018-01-12T20:14:16.245Z,6.54
2018-01-12T20:16:44.014Z,6.81
2018-01-12T20:19:12.107Z,6.82
2018-01-12T20:21:40.151Z,6.99
2018-01-12T20:24:08.157Z,7.02
2018-01-12T20:26:36.188Z,6.89
2018-01-12T20:29:04.554Z,6.80
2018-01-12T20:31:32.496Z,6.96
2018-01-12T20:34:00.389Z,7.27
2018-01-12T20:36:28.756Z,7.25
2018-01-12T20:38:56.621Z,7.05
2018-01-12T20:41:24.570Z,7.01
2018-01-12T20:43:52.692Z,7.37
2018-01-12T20:46:20.589Z,7.39
2018-01-12T20:48:48.429Z,7.17
2018-01-12T20:51:16.599Z,6.91
2018-01-12T20:53:44.241Z,6.93
2018-01-12T20:56:13.153Z,7.17
2018-01-12T20:58:41.325Z,7.36
2018-01-12T21:01:10.008Z,7.44
2018-01-12T21:03:38.084Z,7.51
2018-01-12T21:06:06.343Z,7.43
2018-01-12T21:08:34.319Z,7.64
2018-01-12T21:11:02.290Z,7.70
2018-01-12T21:13:30.603Z,7.62
2018-01-12T21:15:58.623Z,7.61
2018-01-12T21:18:26.506Z,7.80
2018-01-12T21:20:55.440Z,7.82
2018-01-12T21:23:24.598Z,7.73
2018-01-12T21:25:52.466Z,7.61
2018-01-12T21:28:21.362Z,7.70
2018-01-12T21:30:49.319Z,7.42
2018-01-12T21:33:17.294Z,7.59
2018-01-12T21:35:45.328Z,7.74
2018-01-12T21:38:13.119Z,7.75
2018-01-12T21:40:41.097Z,7.71
2018-01-12T21:43:09.474Z,7.65
2018-01-12T21:45:37.217Z,7.73
2018-01-12T21:48:05.374Z,7.52
2018-01-12T21:50:33.975Z,7.50
2018-01-12T21:53:01.955Z,6.99
2018-01-12T21:55:29.811Z,7.17
2018-01-12T21:57:57.694Z,7.25
2018-01-12T22:00:26.583Z,7.09
2018-01-12T22:02:54.608Z,7.20
2018-01-12T22:05:22.619Z,7.28
2018-01-12T22:07:50.473Z,7.52
2018-01-12T22:10:18.341Z,7.16
2018-01-12T22:12:47.151Z,6.98
2018-01-12T22:15:14.789Z,6.87
2018-01-12T22:17:42.861Z,6.88
2018-01-12T22:20:11.575Z,7.13
2018-01-12T22:22:39.489Z,7.12
2018-01-12T22:25:07.571Z,7.18
2018-01-12T22:27:35.673Z,7.48
2018-01-12T22:30:03.433Z,7.20
2018-01-12T22:32:31.812Z,7.09
2018-01-12T22:34:59.997Z,7.42
2018-01-12T22:37:28.269Z,7.26
2018-01-12T22:39:57.328Z,7.33
2018-01-12T22:42:25.524Z,6.96
2018-01-12T22:44:53.270Z,6.88
2018-01-12T22:47:22.245Z,6.37
2018-01-12T22:49:50.464Z,6.94
2018-01-12T22:52:18.435Z,6.92
2018-01-12T22:54:46.407Z,7.15
2018-01-12T22:57:14.582Z,7.19
2018-01-12T22:59:42.351Z,6.95
2018-01-12T23:02:10.516Z,7.14
2018-01-12T23:04:38.897Z,7.10
2018-01-12T23:07:06.765Z,6.93
2018-01-12T23:09:35.032Z,6.99
2018-01-12T23:12:03.155Z,7.00
2018-01-12T23:14:30.979Z,7.17
2018-01-12T23:16:58.808Z,6.74
2018-01-12T23:19:26.396Z,6.64
2018-01-12T23:21:54.119Z,7.23
2018-01-12T23:24:21.983Z,7.38
2018-01-12T23:26:49.992Z,7.51
2018-01-12T23:29:18.688Z,7.36
2018-01-12T23:31:46.344Z,7.36
2018-01-12T23:34:14.600Z,7.41
2018-01-12T23:36:42.486Z,6.87
2018-01-12T23:39:10.246Z,6.93
2018-01-12T23:41:38.372Z,7.28
2018-01-12T23:44:06.197Z,7.54
2018-01-12T23:46:34.062Z,7.52
2018-01-12T23:49:02.028Z,7.34
2018-01-12T23:51:29.691Z,7.48
2018-01-12T23:53:57.546Z,7.42
2018-01-12T23:56:25.456Z,7.50
2018-01-12T23:58:53.028Z,7.47
